createdAt,value
2022-12-09T03:13:28.274Z,103.22
2022-12-09T03:16:01.807Z,103.07
2022-12-09T03:18:32.916Z,105.35
2022-12-09T03:21:01.556Z,86.70
2022-12-09T03:23:30.961Z,90.68
2022-12-09T03:25:59.813Z,118.50
2022-12-09T03:28:33.013Z,93.13
2022-12-09T03:31:05.587Z,94.13
2022-12-09T03:33:32.982Z,84.82
2022-12-09T03:36:04.229Z,90.65
2022-12-09T03:38:36.318Z,84.07
2022-12-09T03:41:30.478Z,76.85
2022-12-09T03:44:10.460Z,84.32
2022-12-09T03:46:37.800Z,144.98
2022-12-09T03:49:04.960Z,287.27
2022-12-09T03:51:49.757Z,383.00
2022-12-09T03:54:24.279Z,181.02
2022-12-09T03:56:54.938Z,178.10
2022-12-09T03:59:24.997Z,231.13
2022-12-09T04:01:52.853Z,263.65
2022-12-09T04:04:19.853Z,181.20
2022-12-09T04:06:48.413Z,159.13
2022-12-09T04:09:15.654Z,455.88
2022-12-09T04:11:44.003Z,213.88
2022-12-09T04:14:15.513Z,192.65
2022-12-09T04:16:44.794Z,223.43
2022-12-09T04:19:12.454Z,96.13
2022-12-09T04:21:39.859Z,122.05
2022-12-09T04:24:07.471Z,63.03
2022-12-09T04:26:34.969Z,59.75
2022-12-09T04:29:03.696Z,62.63
2022-12-09T04:31:30.844Z,124.78
2022-12-09T04:33:57.731Z,90.97
2022-12-09T04:36:24.525Z,64.93
2022-12-09T04:38:51.727Z,57.13
2022-12-09T04:41:18.916Z,71.93
2022-12-09T04:43:45.863Z,47.63
2022-12-09T04:46:16.272Z,44.78
2022-12-09T04:48:43.918Z,46.47
2022-12-09T04:51:13.075Z,50.53
2022-12-09T04:53:40.859Z,45.92
2022-12-09T04:56:21.486Z,40.70
2022-12-09T04:58:50.177Z,49.77
2022-12-09T05:01:24.785Z,44.03
2022-12-09T05:03:55.562Z,44.30
2022-12-09T05:06:23.737Z,39.97
2022-12-09T05:08:51.327Z,47.35
2022-12-09T05:11:20.066Z,48.80
2022-12-09T05:13:47.909Z,49.92
2022-12-09T05:16:17.477Z,45.22
2022-12-09T05:18:46.586Z,43.53
2022-12-09T05:21:18.910Z,42.40
2022-12-09T05:23:48.907Z,43.95
2022-12-09T05:26:18.765Z,49.10
2022-12-09T05:28:46.999Z,42.38
2022-12-09T05:31:17.197Z,52.17
2022-12-09T05:33:45.836Z,49.85
2022-12-09T05:36:15.077Z,76.50
2022-12-09T05:38:42.436Z,95.18
2022-12-09T05:41:09.834Z,113.32
2022-12-09T05:43:37.278Z,86.53
2022-12-09T05:46:06.017Z,69.55
2022-12-09T05:48:33.842Z,64.70
2022-12-09T05:51:04.197Z,53.15
2022-12-09T05:53:32.130Z,65.50
2022-12-09T05:55:59.189Z,55.38
2022-12-09T05:58:26.416Z,58.85
2022-12-09T06:00:56.728Z,59.60
2022-12-09T06:03:25.576Z,69.68
2022-12-09T06:05:52.784Z,54.85
2022-12-09T06:08:21.154Z,45.30
2022-12-09T06:10:48.283Z,66.03
2022-12-09T06:13:15.868Z,58.50
2022-12-09T06:15:43.089Z,60.83
2022-12-09T06:18:10.721Z,45.85
2022-12-09T06:20:42.460Z,60.38
2022-12-09T06:23:09.710Z,52.88
2022-12-09T06:25:36.962Z,58.05
2022-12-09T06:28:04.728Z,56.42
2022-12-09T06:30:31.973Z,48.28
2022-12-09T06:33:00.554Z,54.38
2022-12-09T06:35:28.478Z,54.20
2022-12-09T06:37:55.794Z,56.40
2022-12-09T06:40:24.304Z,56.10
2022-12-09T06:42:52.036Z,59.80
2022-12-09T06:45:21.183Z,53.80
2022-12-09T06:47:48.526Z,59.72
2022-12-09T06:50:16.243Z,68.45
2022-12-09T06:52:43.590Z,68.97
2022-12-09T06:55:11.331Z,74.68
2022-12-09T06:57:38.883Z,76.68
2022-12-09T07:00:07.157Z,71.30
2022-12-09T07:02:36.634Z,66.07
2022-12-09T07:05:04.694Z,56.53
2022-12-09T07:07:34.056Z,56.03
2022-12-09T07:10:11.363Z,58.65
2022-12-09T07:12:38.386Z,60.88
2022-12-09T07:15:06.594Z,66.93
2022-12-09T07:17:34.651Z,64.28
2022-12-09T07:20:06.796Z,63.42
2022-12-09T07:22:34.463Z,64.88
2022-12-09T07:25:02.300Z,61.95
2022-12-09T07:27:29.842Z,55.28
2022-12-09T07:29:58.419Z,67.93
2022-12-09T07:32:25.784Z,58.72
2022-12-09T07:34:53.480Z,71.55
2022-12-09T07:37:20.650Z,69.38
2022-12-09T07:39:47.894Z,63.53
2022-12-09T07:42:15.065Z,69.07
2022-12-09T07:44:42.464Z,69.95
2022-12-09T07:47:09.970Z,73.95
2022-12-09T07:49:37.402Z,68.22
2022-12-09T07:52:04.972Z,66.47
2022-12-09T07:54:32.581Z,67.60
2022-12-09T07:56:59.767Z,73.28
2022-12-09T07:59:27.897Z,68.32
2022-12-09T08:01:54.955Z,76.72
2022-12-09T08:04:22.626Z,84.63
2022-12-09T08:06:50.138Z,79.72
2022-12-09T08:09:17.601Z,84.28
2022-12-09T08:11:44.744Z,73.82
2022-12-09T08:14:13.383Z,76.32
2022-12-09T08:16:46.984Z,68.88
2022-12-09T08:19:14.682Z,68.82
2022-12-09T08:21:42.572Z,70.88
2022-12-09T08:24:12.625Z,67.30
2022-12-09T08:26:40.415Z,71.07
2022-12-09T08:29:10.075Z,87.20
2022-12-09T08:31:41.618Z,79.50
2022-12-09T08:34:09.996Z,79.88
2022-12-09T08:36:37.907Z,77.93
2022-12-09T08:39:06.125Z,76.60
2022-12-09T08:41:37.606Z,91.85
2022-12-09T08:44:20.406Z,79.20
2022-12-09T08:46:50.423Z,89.47
2022-12-09T08:49:21.326Z,85.47
2022-12-09T08:51:50.317Z,86.75
2022-12-09T08:54:17.394Z,88.20
2022-12-09T08:56:46.974Z,78.25
2022-12-09T08:59:16.068Z,84.35
2022-12-09T09:01:43.261Z,84.88
2022-12-09T09:04:13.630Z,93.43
2022-12-09T09:06:42.480Z,89.73
2022-12-09T09:09:11.858Z,104.07
2022-12-09T09:11:40.591Z,102.38
2022-12-09T09:14:10.302Z,97.85
2022-12-09T09:16:40.899Z,118.07
2022-12-09T09:19:08.939Z,102.25
2022-12-09T09:21:36.225Z,105.70
2022-12-09T09:24:09.483Z,103.03
2022-12-09T09:26:40.680Z,101.30
2022-12-09T09:29:08.682Z,64.38
2022-12-09T09:31:35.998Z,50.72
2022-12-09T09:34:05.037Z,48.30
2022-12-09T09:36:32.178Z,48.22
2022-12-09T09:39:00.237Z,42.40
2022-12-09T09:41:51.996Z,46.75
2022-12-09T09:44:22.607Z,42.83
2022-12-09T09:46:51.666Z,37.83
2022-12-09T09:49:30.083Z,38.50
2022-12-09T09:51:58.511Z,43.80
2022-12-09T09:54:26.219Z,45.30
2022-12-09T09:57:18.052Z,49.28
2022-12-09T10:05:26.685Z,53.70
2022-12-09T10:08:13.670Z,62.03
2022-12-09T10:10:47.319Z,63.00
2022-12-09T10:13:33.009Z,68.05
2022-12-09T10:16:21.990Z,72.88
2022-12-09T10:19:18.022Z,75.43
2022-12-09T10:21:47.556Z,86.28
2022-12-09T10:24:28.460Z,91.40
2022-12-09T10:27:01.627Z,63.53
2022-12-09T10:30:06.591Z,91.85
2022-12-09T10:32:36.571Z,88.25
2022-12-09T10:35:15.481Z,96.85
2022-12-09T10:37:43.677Z,88.15
2022-12-09T10:40:11.091Z,98.80
2022-12-09T10:43:15.303Z,101.85
2022-12-09T10:46:16.667Z,96.05
2022-12-09T10:48:38.514Z,101.05
2022-12-09T10:51:12.417Z,98.32
2022-12-09T10:54:00.036Z,97.20
2022-12-09T11:08:00.802Z,93.25
2022-12-09T11:10:30.812Z,95.85
2022-12-09T11:13:06.372Z,88.93
2022-12-09T11:15:45.015Z,84.38
2022-12-09T11:18:26.614Z,78.90
2022-12-09T11:21:07.941Z,88.55
2022-12-09T11:23:36.238Z,81.28
2022-12-09T11:26:07.751Z,86.47
2022-12-09T11:28:40.509Z,88.05
2022-12-09T11:31:29.633Z,74.05
2022-12-09T11:34:04.297Z,74.97
2022-12-09T11:36:44.329Z,85.18
2022-12-09T11:39:23.438Z,79.43
2022-12-09T11:42:17.217Z,77.38
2022-12-09T11:45:05.760Z,72.13
2022-12-09T11:50:36.663Z,80.10
2022-12-09T11:53:12.027Z,80.20
2022-12-09T11:55:58.278Z,66.50
2022-12-09T11:58:38.008Z,66.05
2022-12-09T12:01:22.568Z,77.88
2022-12-09T12:03:53.110Z,72.28
2022-12-09T12:06:23.426Z,66.07
2022-12-09T12:09:01.754Z,106.55
2022-12-09T12:11:36.823Z,70.47
2022-12-09T12:14:10.335Z,63.60
2022-12-09T12:17:02.801Z,65.32
2022-12-09T12:19:39.840Z,66.80
2022-12-09T12:22:37.330Z,66.50
2022-12-09T12:25:31.410Z,61.03
2022-12-09T12:28:01.422Z,59.00
2022-12-09T12:31:09.602Z,53.03
2022-12-09T12:34:26.185Z,61.38
2022-12-09T12:37:14.280Z,64.93
2022-12-09T12:40:23.446Z,65.25
2022-12-09T12:43:38.287Z,74.68
2022-12-09T12:46:35.514Z,72.70
2022-12-09T12:49:17.302Z,69.78
2022-12-09T12:52:05.429Z,65.28
2022-12-09T12:54:41.410Z,61.65
2022-12-09T12:57:19.919Z,73.00
2022-12-09T13:00:13.322Z,80.32
2022-12-09T13:03:16.579Z,67.82
2022-12-09T13:05:47.772Z,61.35
2022-12-09T13:08:25.734Z,69.88
2022-12-09T13:11:01.991Z,69.13
2022-12-09T13:13:44.178Z,68.07
2022-12-09T13:16:28.185Z,61.42
2022-12-09T13:19:21.719Z,64.57
2022-12-09T13:21:49.439Z,59.35
2022-12-09T13:24:42.288Z,65.10
2022-12-09T13:28:07.368Z,66.22
2022-12-09T13:30:49.681Z,57.92
2022-12-09T13:33:42.844Z,59.75
2022-12-09T13:36:18.133Z,64.50
2022-12-09T13:38:45.253Z,91.60
2022-12-09T13:41:27.554Z,84.10
2022-12-09T13:44:11.551Z,66.38
2022-12-09T13:46:38.946Z,58.10
2022-12-09T13:49:12.001Z,69.72
2022-12-09T13:51:48.408Z,48.28
2022-12-09T13:54:21.335Z,58.33
2022-12-09T13:57:02.797Z,50.90
2022-12-09T13:59:39.988Z,46.17
2022-12-09T14:02:15.603Z,51.58
2022-12-09T14:05:05.588Z,57.85
2022-12-09T14:08:19.571Z,56.65
2022-12-09T14:10:50.325Z,53.50
2022-12-09T14:13:33.382Z,59.63
2022-12-09T14:16:27.414Z,109.25
2022-12-09T14:18:56.244Z,88.43
2022-12-09T14:21:26.899Z,194.60
2022-12-09T14:24:12.015Z,254.90
2022-12-09T14:26:44.514Z,178.05
2022-12-09T14:29:11.822Z,80.72
2022-12-09T14:32:02.480Z,114.22
2022-12-09T14:34:34.769Z,165.55
2022-12-09T14:37:11.007Z,284.95
2022-12-09T14:40:16.757Z,139.60
2022-12-09T14:43:18.964Z,237.38
2022-12-09T14:46:00.497Z,86.22
2022-12-09T14:51:19.451Z,70.40
2022-12-09T14:53:55.582Z,85.95
2022-12-09T14:56:24.735Z,75.57
2022-12-09T14:59:01.482Z,77.05
2022-12-09T15:01:28.347Z,74.80
2022-12-09T15:03:59.948Z,84.60
2022-12-09T15:06:27.283Z,75.70
2022-12-09T15:08:59.010Z,80.47
2022-12-09T15:11:34.683Z,107.43
2022-12-09T15:14:25.551Z,90.15
2022-12-09T15:16:53.274Z,111.50
2022-12-09T15:19:57.929Z,98.47
2022-12-09T15:22:22.113Z,146.13
2022-12-09T15:24:51.115Z,151.45
2022-12-09T15:27:21.423Z,116.38
2022-12-09T15:29:48.452Z,103.07
2022-12-09T15:32:24.943Z,97.57
2022-12-09T15:34:53.229Z,100.00
2022-12-09T15:37:27.162Z,95.22
2022-12-09T15:40:09.075Z,84.53
2022-12-09T15:42:41.746Z,88.72
2022-12-09T15:45:08.912Z,79.38
2022-12-09T15:47:51.609Z,83.28
2022-12-09T15:50:34.301Z,85.90
2022-12-09T15:53:15.033Z,88.07
2022-12-09T15:55:47.005Z,82.53
2022-12-09T15:58:17.811Z,93.88
2022-12-09T16:00:49.165Z,84.55
2022-12-09T16:03:19.215Z,86.20
2022-12-09T16:05:56.120Z,110.65
2022-12-09T16:08:30.946Z,171.23
2022-12-09T16:10:58.698Z,146.88
2022-12-09T16:13:26.220Z,163.57
2022-12-09T16:15:56.027Z,157.60
2022-12-09T16:18:34.152Z,112.78
2022-12-09T16:21:33.655Z,104.22
2022-12-09T16:24:13.071Z,93.30
2022-12-09T16:26:45.783Z,98.75
2022-12-09T16:29:31.610Z,101.40
2022-12-09T16:32:18.824Z,110.95
2022-12-09T16:34:47.514Z,106.78
2022-12-09T16:37:32.863Z,115.78
2022-12-09T16:40:00.309Z,121.45
2022-12-09T16:42:30.104Z,115.53
2022-12-09T16:45:36.052Z,120.72
2022-12-09T16:48:03.375Z,106.47
2022-12-09T16:50:52.209Z,131.80
2022-12-09T16:53:33.880Z,141.68
2022-12-09T16:58:33.565Z,103.53
2022-12-09T17:01:03.272Z,94.30
2022-12-09T17:03:43.828Z,103.47
2022-12-09T17:06:14.896Z,114.20
2022-12-09T17:08:43.461Z,107.82
2022-12-09T17:11:11.535Z,106.35
2022-12-09T17:13:39.710Z,110.32
2022-12-09T17:16:09.823Z,121.65
2022-12-09T17:18:36.730Z,119.50
2022-12-09T17:21:10.859Z,113.90
2022-12-09T17:23:40.215Z,109.55
2022-12-09T17:26:10.683Z,122.05
2022-12-09T17:28:40.096Z,162.63
2022-12-09T17:31:10.383Z,146.82
2022-12-09T17:33:38.412Z,111.90
2022-12-09T17:36:06.439Z,157.95
2022-12-09T17:38:34.407Z,158.80
2022-12-09T17:41:11.389Z,197.38
2022-12-09T17:43:38.319Z,182.50
2022-12-09T17:46:06.680Z,139.40
2022-12-09T17:48:35.311Z,202.95
2022-12-09T17:51:07.737Z,136.23
2022-12-09T17:53:39.438Z,124.50
2022-12-09T17:56:18.380Z,136.65
2022-12-09T17:58:46.010Z,126.82
2022-12-09T18:01:24.504Z,180.48
2022-12-09T18:03:58.432Z,140.38
2022-12-09T18:06:35.214Z,140.63
2022-12-09T18:09:04.101Z,125.20
2022-12-09T18:11:31.273Z,156.93
2022-12-09T18:13:58.572Z,172.88
2022-12-09T18:16:29.348Z,132.73
2022-12-09T18:19:02.486Z,129.75
2022-12-09T18:21:36.967Z,119.30
2022-12-09T18:24:05.304Z,111.95
2022-12-09T18:26:38.162Z,105.95
2022-12-09T18:29:09.684Z,314.45
2022-12-09T18:31:38.027Z,348.48
2022-12-09T18:34:17.008Z,267.92
2022-12-09T18:36:51.245Z,378.30
2022-12-09T18:39:19.717Z,163.43
2022-12-09T18:41:46.723Z,269.95
2022-12-09T18:44:15.623Z,171.15
2022-12-09T18:46:47.259Z,257.40
2022-12-09T18:49:17.470Z,226.88
2022-12-09T18:51:46.251Z,222.25
2022-12-09T18:54:24.588Z,226.20
2022-12-09T18:56:53.443Z,344.23
2022-12-09T18:59:24.225Z,232.52
2022-12-09T19:01:55.356Z,135.27
2022-12-09T19:04:29.986Z,126.20
2022-12-09T19:07:00.081Z,155.75
2022-12-09T19:09:33.308Z,150.55
2022-12-09T19:12:38.271Z,143.25
2022-12-09T19:14:55.177Z,126.25
2022-12-09T19:17:23.650Z,113.13
2022-12-09T19:19:55.042Z,117.18
2022-12-09T19:22:26.097Z,120.53
2022-12-09T19:24:53.274Z,127.20
2022-12-09T19:27:23.770Z,118.43
2022-12-09T19:29:51.181Z,129.68
2022-12-09T19:32:51.531Z,136.07
2022-12-09T19:35:11.634Z,121.18
2022-12-09T19:37:39.806Z,128.70
2022-12-09T19:40:08.906Z,138.55
2022-12-09T19:42:38.408Z,111.88
2022-12-09T19:45:13.723Z,113.75
2022-12-09T19:47:44.602Z,367.17
2022-12-09T19:50:11.930Z,123.05
2022-12-09T19:52:39.751Z,111.97
2022-12-09T19:55:09.055Z,109.05
2022-12-09T19:57:37.807Z,127.97
2022-12-09T20:00:13.408Z,128.55
2022-12-09T20:02:46.118Z,136.80
2022-12-09T20:05:13.080Z,133.90
2022-12-09T20:07:40.900Z,119.00
2022-12-09T20:10:10.290Z,114.45
2022-12-09T20:12:39.022Z,123.05
2022-12-09T20:15:07.333Z,121.57
2022-12-09T20:17:34.603Z,116.75
2022-12-09T20:20:06.184Z,126.30
2022-12-09T20:22:36.551Z,132.50
2022-12-09T20:25:06.213Z,131.75
2022-12-09T20:27:34.544Z,125.82
2022-12-09T20:30:03.870Z,114.55
2022-12-09T20:32:37.303Z,149.93
2022-12-09T20:35:08.295Z,132.05
2022-12-09T20:37:37.070Z,135.75
2022-12-09T20:40:08.130Z,123.30
2022-12-09T20:42:36.670Z,164.63
2022-12-09T20:45:12.142Z,136.30
2022-12-09T20:47:41.528Z,132.52
2022-12-09T20:50:10.895Z,112.65
2022-12-09T20:52:51.400Z,123.25
2022-12-09T20:55:23.401Z,134.52
2022-12-09T20:57:51.642Z,131.02
2022-12-09T21:00:21.217Z,151.75
2022-12-09T21:02:49.144Z,125.65
2022-12-09T21:05:16.254Z,122.07
2022-12-09T21:07:44.148Z,158.30
2022-12-09T21:10:11.437Z,163.73
2022-12-09T21:12:38.851Z,131.00
2022-12-09T21:15:07.834Z,131.88
2022-12-09T21:17:37.487Z,129.13
2022-12-09T21:20:05.470Z,140.32
2022-12-09T21:22:35.565Z,145.10
2022-12-09T21:25:03.945Z,147.93
2022-12-09T21:27:34.319Z,149.95
2022-12-09T21:30:02.715Z,147.07
2022-12-09T21:32:31.140Z,144.80
2022-12-09T21:34:58.787Z,153.23
2022-12-09T21:37:25.628Z,144.40
2022-12-09T21:39:52.759Z,159.90
2022-12-09T21:42:20.273Z,153.77
2022-12-09T21:44:48.465Z,159.02
2022-12-09T21:47:17.022Z,143.98
2022-12-09T21:49:48.703Z,150.57
2022-12-09T21:52:15.778Z,155.35
2022-12-09T21:54:44.948Z,157.32
2022-12-09T21:57:14.058Z,144.38
2022-12-09T21:59:41.297Z,143.80
2022-12-09T22:02:09.558Z,135.40
2022-12-09T22:04:38.122Z,131.60
2022-12-09T22:07:04.996Z,140.82
2022-12-09T22:09:32.040Z,145.98
2022-12-09T22:11:58.869Z,124.25
2022-12-09T22:14:25.817Z,135.23
2022-12-09T22:16:52.852Z,124.55
2022-12-09T22:19:21.090Z,129.38
2022-12-09T22:21:50.702Z,129.07
2022-12-09T22:24:18.758Z,127.07
2022-12-09T22:26:51.091Z,125.85
2022-12-09T22:29:19.750Z,127.40
2022-12-09T22:31:47.431Z,124.20
2022-12-09T22:34:20.221Z,107.95
2022-12-09T22:36:49.486Z,112.53
2022-12-09T22:39:19.798Z,116.18
2022-12-09T22:41:48.297Z,110.07
2022-12-09T22:44:20.120Z,110.43
2022-12-09T22:46:49.001Z,129.93
2022-12-09T22:49:18.068Z,129.30
2022-12-09T22:51:46.234Z,117.88
2022-12-09T22:54:13.610Z,126.22
2022-12-09T22:56:42.868Z,138.90
2022-12-09T22:59:10.006Z,145.27
2022-12-09T23:01:37.675Z,148.68
2022-12-09T23:04:06.931Z,142.13
2022-12-09T23:06:36.559Z,146.70
2022-12-09T23:09:04.076Z,149.13
2022-12-09T23:11:30.950Z,142.13
2022-12-09T23:13:59.859Z,125.78
2022-12-09T23:16:27.825Z,128.70
2022-12-09T23:18:59.172Z,138.90
2022-12-09T23:21:28.883Z,128.32
2022-12-09T23:23:59.514Z,129.85
2022-12-09T23:26:28.940Z,124.82
2022-12-09T23:28:57.743Z,124.25
2022-12-09T23:31:28.257Z,149.95
2022-12-09T23:33:56.350Z,129.82
2022-12-09T23:36:27.666Z,127.43
2022-12-09T23:38:54.735Z,134.20
2022-12-09T23:41:23.189Z,129.57
2022-12-09T23:43:51.028Z,129.93
2022-12-09T23:46:20.632Z,140.43
2022-12-09T23:48:49.992Z,129.57
2022-12-09T23:51:19.748Z,147.02
2022-12-09T23:53:48.404Z,124.07
2022-12-09T23:56:21.262Z,140.90
2022-12-09T23:58:52.865Z,148.15
